Time;durP1;ratioP1;P1;durP2;ratioP2;P2;SDS_P1;SDS_P2;PMS_P1;PMS_P2;Temp;Humidity;BMP_temperature;BMP_pressure;BME280_temperature;BME280_humidity;BME280_pressure;Samples;Min_cycle;Max_cycle;Signal;HPM_P1;HPM_P2
2022/11/19 00:00:13;;;;;;;7.25;3.45;;;7.20;99.90;;;;;;477281;249;28587;-69
2022/11/19 00:02:14;;;;;;;3.85;3.45;;;7.20;99.90;;;;;;477288;249;27559;-66
2022/11/19 00:04:15;;;;;;;3.60;3.30;;;7.20;99.90;;;;;;477256;249;27646;-66
2022/11/19 00:06:16;;;;;;;4.00;3.58;;;7.20;99.90;;;;;;477260;249;27512;-66
2022/11/19 00:08:18;;;;;;;4.83;3.53;;;7.20;99.90;;;;;;477249;249;27548;-65
2022/11/19 00:10:19;;;;;;;3.30;3.00;;;7.20;99.90;;;;;;477258;249;28953;-63
2022/11/19 00:14:40;;;;;;;3.92;3.35;;;7.30;99.90;;;;;;477230;249;28488;-67
2022/11/19 00:16:42;;;;;;;3.42;3.20;;;7.30;99.90;;;;;;477229;249;27498;-65
2022/11/19 00:18:42;;;;;;;3.62;3.33;;;7.30;99.90;;;;;;477203;249;27531;-66
2022/11/19 00:20:43;;;;;;;4.10;3.70;;;7.20;99.90;;;;;;477266;249;27574;-66
2022/11/19 00:22:45;;;;;;;3.65;3.35;;;7.20;99.90;;;;;;477289;249;27990;-66
2022/11/19 00:24:46;;;;;;;4.62;3.00;;;7.20;99.90;;;;;;477249;249;28092;-63
2022/11/19 00:26:47;;;;;;;3.90;3.30;;;7.20;99.90;;;;;;477222;249;27492;-66
2022/11/19 00:28:48;;;;;;;3.72;3.42;;;7.30;99.90;;;;;;477259;249;27568;-66
2022/11/19 00:30:50;;;;;;;5.72;3.40;;;7.30;99.90;;;;;;477265;249;27540;-68
2022/11/19 00:32:51;;;;;;;6.50;3.67;;;7.30;99.90;;;;;;477271;249;27503;-65
2022/11/19 00:34:52;;;;;;;8.10;4.45;;;7.30;99.90;;;;;;477295;249;28094;-66
2022/11/19 00:36:53;;;;;;;4.10;3.70;;;7.30;99.90;;;;;;477239;249;28007;-65
2022/11/19 00:38:55;;;;;;;5.97;3.50;;;7.30;99.90;;;;;;477243;249;29312;-66
2022/11/19 00:40:56;;;;;;;4.97;3.50;;;7.20;99.90;;;;;;477251;249;28309;-69
2022/11/19 00:45:17;;;;;;;3.47;3.17;;;7.20;99.90;;;;;;477247;249;27571;-64
2022/11/19 00:47:18;;;;;;;3.65;2.80;;;7.30;99.90;;;;;;477248;249;27498;-64
2022/11/19 00:49:19;;;;;;;3.58;3.20;;;7.30;99.90;;;;;;477222;249;27597;-64
2022/11/19 00:51:20;;;;;;;2.85;2.60;;;7.30;99.90;;;;;;477286;249;27538;-68
2022/11/19 00:53:22;;;;;;;2.70;2.50;;;7.30;99.90;;;;;;477254;249;28411;-66
2022/11/19 00:55:23;;;;;;;3.30;3.00;;;7.30;99.90;;;;;;477244;249;29361;-66
2022/11/19 00:57:24;;;;;;;3.23;2.93;;;7.30;99.90;;;;;;477220;249;28123;-66
2022/11/19 00:59:25;;;;;;;5.57;2.90;;;7.30;99.90;;;;;;477262;249;28846;-66
2022/11/19 01:01:27;;;;;;;3.70;2.80;;;7.30;99.90;;;;;;477244;249;27536;-68
2022/11/19 01:03:28;;;;;;;3.33;2.80;;;7.30;99.90;;;;;;477244;249;27513;-66
2022/11/19 01:05:29;;;;;;;3.40;3.10;;;7.30;99.90;;;;;;477230;249;27643;-66
2022/11/19 01:07:30;;;;;;;2.87;2.60;;;7.30;99.90;;;;;;477221;249;28119;-66
2022/11/19 01:09:32;;;;;;;3.40;3.10;;;7.30;99.90;;;;;;477275;249;27966;-66
2022/11/19 01:11:33;;;;;;;3.20;2.60;;;7.30;99.90;;;;;;477231;249;28020;-67
2022/11/19 01:13:34;;;;;;;4.30;3.00;;;7.30;99.90;;;;;;477248;249;28723;-66
2022/11/19 01:15:35;;;;;;;3.45;3.15;;;7.30;99.90;;;;;;476900;249;28945;-67
2022/11/19 01:17:37;;;;;;;3.05;2.70;;;7.30;99.90;;;;;;477230;249;27494;-66
2022/11/19 01:19:38;;;;;;;5.10;2.97;;;7.30;99.90;;;;;;477262;249;27496;-65
2022/11/19 01:21:39;;;;;;;2.73;2.50;;;7.30;99.90;;;;;;477271;249;27547;-69
2022/11/19 01:23:40;;;;;;;4.50;2.97;;;7.20;99.90;;;;;;477246;249;28248;-66
2022/11/19 01:25:42;;;;;;;4.00;3.00;;;7.30;99.90;;;;;;477226;249;28871;-66
2022/11/19 01:27:43;;;;;;;3.33;3.03;;;7.20;99.90;;;;;;477192;249;28858;-66
2022/11/19 01:29:44;;;;;;;3.47;3.17;;;7.30;99.90;;;;;;477270;249;28027;-66
2022/11/19 01:31:45;;;;;;;5.32;3.00;;;7.20;99.90;;;;;;477266;249;29309;-67
2022/11/19 01:33:47;;;;;;;3.03;2.70;;;7.20;99.90;;;;;;477243;249;27957;-65
2022/11/19 01:35:48;;;;;;;3.00;2.80;;;7.20;99.90;;;;;;477231;249;27529;-65
2022/11/19 01:37:50;;;;;;;3.15;2.95;;;7.20;99.90;;;;;;477268;249;27639;-65
2022/11/19 01:39:50;;;;;;;3.33;3.05;;;7.20;99.90;;;;;;477263;249;27552;-66
2022/11/19 01:41:52;;;;;;;5.93;3.57;;;7.20;99.90;;;;;;477231;249;27634;-67
2022/11/19 01:43:53;;;;;;;5.77;3.23;;;7.20;99.90;;;;;;477219;249;28933;-66
2022/11/19 01:45:54;;;;;;;4.62;3.40;;;7.10;99.90;;;;;;477222;249;28210;-66
2022/11/19 01:47:56;;;;;;;4.80;3.13;;;7.10;99.90;;;;;;477258;249;28151;-69
2022/11/19 01:49:57;;;;;;;3.37;3.08;;;7.10;99.90;;;;;;477262;249;29365;-66
2022/11/19 01:51:58;;;;;;;3.17;2.97;;;7.10;99.90;;;;;;477241;249;27547;-65
2022/11/19 01:53:59;;;;;;;3.67;2.85;;;7.10;99.90;;;;;;477225;249;27521;-64
2022/11/19 01:56:02;;;;;;;2.75;2.55;;;7.10;99.90;;;;;;477199;249;27576;-66
2022/11/19 01:58:02;;;;;;;3.08;2.87;;;7.10;99.90;;;;;;477066;249;27885;-69
2022/11/19 02:00:03;;;;;;;3.20;2.90;;;7.10;99.90;;;;;;477276;249;28117;-64
2022/11/19 02:02:04;;;;;;;4.37;3.08;;;7.00;99.90;;;;;;477280;249;28909;-63
2022/11/19 02:04:06;;;;;;;4.28;3.10;;;7.00;99.90;;;;;;477172;249;27959;-63
2022/11/19 02:06:07;;;;;;;4.25;2.80;;;6.90;99.90;;;;;;477241;249;27622;-64
2022/11/19 02:08:08;;;;;;;3.20;3.00;;;6.90;99.90;;;;;;477264;249;27543;-66
2022/11/19 02:10:09;;;;;;;4.43;2.85;;;6.90;99.90;;;;;;477248;249;27509;-65
2022/11/19 02:12:11;;;;;;;3.20;2.90;;;7.00;99.90;;;;;;477240;249;27586;-67
2022/11/19 02:14:12;;;;;;;3.62;3.17;;;7.00;99.90;;;;;;477272;249;28858;-65
2022/11/19 02:16:13;;;;;;;3.07;2.70;;;7.00;99.90;;;;;;477254;249;27973;-66
2022/11/19 02:18:16;;;;;;;3.42;3.12;;;7.00;99.90;;;;;;477285;249;29444;-68
2022/11/19 02:20:16;;;;;;;3.12;2.90;;;7.10;99.90;;;;;;477202;249;27581;-65
2022/11/19 02:22:17;;;;;;;3.12;2.92;;;7.10;99.90;;;;;;477285;249;27674;-64
2022/11/19 02:24:18;;;;;;;2.53;2.33;;;7.10;99.90;;;;;;477268;249;27508;-65
2022/11/19 02:26:19;;;;;;;3.55;3.25;;;7.10;99.90;;;;;;477256;249;27517;-65
2022/11/19 02:28:21;;;;;;;3.00;2.80;;;7.10;99.90;;;;;;477323;249;27665;-70
2022/11/19 02:30:22;;;;;;;2.95;2.75;;;7.10;99.90;;;;;;477373;249;27943;-67
2022/11/19 02:32:23;;;;;;;4.18;3.20;;;7.20;99.90;;;;;;477360;249;28003;-67
2022/11/19 02:34:24;;;;;;;4.62;3.47;;;7.20;99.90;;;;;;477379;249;27520;-66
2022/11/19 02:36:26;;;;;;;3.37;2.85;;;7.20;99.90;;;;;;477355;249;27507;-66
2022/11/19 02:38:27;;;;;;;3.22;2.72;;;7.20;99.90;;;;;;477333;249;27543;-68
2022/11/19 02:40:28;;;;;;;3.80;3.10;;;7.20;99.90;;;;;;477282;249;27593;-66
2022/11/19 02:42:29;;;;;;;3.10;2.83;;;7.20;99.90;;;;;;477271;249;27995;-66
2022/11/19 02:46:50;;;;;;;5.47;3.13;;;7.10;99.90;;;;;;477278;249;28585;-66
2022/11/19 02:48:52;;;;;;;3.20;2.92;;;7.20;99.90;;;;;;477259;249;28988;-64
2022/11/19 02:50:53;;;;;;;2.53;2.33;;;7.20;99.90;;;;;;477246;249;27497;-68
2022/11/19 02:52:54;;;;;;;3.12;2.85;;;7.20;99.90;;;;;;477244;249;27508;-66
2022/11/19 02:54:55;;;;;;;4.20;3.53;;;7.20;99.90;;;;;;477266;249;27563;-69
2022/11/19 02:56:59;;;;;;;3.80;3.15;;;7.20;99.90;;;;;;477254;249;28662;-66
2022/11/19 03:05:59;;;;;;;4.25;3.67;;;7.20;99.90;;;;;;477243;249;27492;-66
2022/11/19 03:08:00;;;;;;;8.20;3.65;;;7.20;99.90;;;;;;477278;249;28020;-64
2022/11/19 03:10:02;;;;;;;3.97;3.47;;;7.20;99.90;;;;;;477256;249;28119;-66
2022/11/19 03:12:03;;;;;;;3.53;3.20;;;7.20;99.90;;;;;;477265;249;27536;-64
2022/11/19 03:16:42;;;;;;;3.62;3.28;;;7.10;99.90;;;;;;477264;249;29089;-69
2022/11/19 03:18:43;;;;;;;3.10;2.90;;;7.10;99.90;;;;;;477262;249;27567;-68
2022/11/19 03:20:45;;;;;;;4.68;3.40;;;7.10;99.90;;;;;;477277;249;27543;-63
2022/11/19 03:22:46;;;;;;;3.95;3.50;;;7.10;99.90;;;;;;477277;249;28013;-66
2022/11/19 03:24:47;;;;;;;4.93;3.55;;;7.10;99.90;;;;;;477226;249;27968;-66
2022/11/19 03:26:49;;;;;;;3.78;3.40;;;7.10;99.90;;;;;;477263;249;27551;-66
2022/11/19 03:28:50;;;;;;;6.37;3.60;;;7.10;99.90;;;;;;477263;249;27549;-66
2022/11/19 03:30:51;;;;;;;4.70;4.30;;;7.00;99.90;;;;;;477299;249;27627;-66
2022/11/19 03:32:52;;;;;;;5.05;4.22;;;7.00;99.90;;;;;;477231;249;27559;-65
2022/11/19 03:34:54;;;;;;;5.07;3.80;;;7.10;99.90;;;;;;477280;249;27516;-65
2022/11/19 03:36:55;;;;;;;6.55;4.03;;;7.10;99.90;;;;;;477268;249;28105;-66
2022/11/19 03:38:56;;;;;;;5.22;4.12;;;7.00;99.90;;;;;;477238;249;28711;-64
2022/11/19 03:40:57;;;;;;;4.70;4.28;;;7.10;99.90;;;;;;477288;249;27553;-64
2022/11/19 03:42:59;;;;;;;7.28;3.75;;;7.10;99.90;;;;;;477274;249;27540;-68
2022/11/19 03:45:00;;;;;;;5.75;4.07;;;7.10;99.90;;;;;;477281;249;27489;-66
2022/11/19 03:47:01;;;;;;;3.80;3.50;;;7.10;99.90;;;;;;477259;249;27572;-66
2022/11/19 03:49:02;;;;;;;4.90;4.25;;;7.10;99.90;;;;;;477260;249;27887;-65
2022/11/19 03:51:04;;;;;;;4.70;3.80;;;7.10;99.90;;;;;;477278;249;27933;-66
2022/11/19 03:53:05;;;;;;;4.25;3.70;;;7.10;99.90;;;;;;477241;249;28849;-64
2022/11/19 03:55:06;;;;;;;4.32;3.42;;;7.10;99.90;;;;;;477248;249;27507;-66
2022/11/19 03:57:07;;;;;;;4.43;3.85;;;7.10;99.90;;;;;;477250;249;27548;-66
2022/11/19 03:59:09;;;;;;;3.50;3.20;;;7.10;99.90;;;;;;477282;249;27546;-66
2022/11/19 04:01:10;;;;;;;3.40;3.20;;;7.10;99.90;;;;;;477274;249;27507;-66
2022/11/19 04:03:11;;;;;;;4.00;3.70;;;7.10;99.90;;;;;;477291;249;27548;-66
2022/11/19 04:05:12;;;;;;;4.00;3.22;;;7.10;99.90;;;;;;477243;249;28075;-66
2022/11/19 04:07:14;;;;;;;5.65;3.37;;;7.10;99.90;;;;;;477252;249;27994;-66
2022/11/19 04:09:15;;;;;;;3.40;3.10;;;7.10;99.90;;;;;;477289;249;27526;-65
2022/11/19 04:11:16;;;;;;;4.05;3.65;;;7.10;99.90;;;;;;477272;249;27602;-66
2022/11/19 04:13:17;;;;;;;4.05;3.65;;;7.10;99.90;;;;;;477281;249;27677;-67
2022/11/19 04:15:19;;;;;;;6.20;3.50;;;7.20;99.90;;;;;;477272;249;27604;-64
2022/11/19 04:17:20;;;;;;;2.85;2.65;;;7.20;99.90;;;;;;477243;249;27627;-66
2022/11/19 04:19:21;;;;;;;3.50;3.20;;;7.10;99.90;;;;;;477299;249;28129;-70
2022/11/19 04:21:22;;;;;;;3.83;3.37;;;7.10;99.90;;;;;;477281;249;27983;-65
2022/11/19 04:23:24;;;;;;;4.05;3.65;;;7.10;99.90;;;;;;477241;249;27625;-66
2022/11/19 04:25:25;;;;;;;3.75;3.45;;;7.10;99.90;;;;;;477244;249;27488;-66
2022/11/19 04:27:26;;;;;;;3.60;3.30;;;7.10;99.90;;;;;;477229;249;27639;-66
2022/11/19 04:29:27;;;;;;;3.80;3.40;;;7.10;99.90;;;;;;477281;249;27683;-70
2022/11/19 04:31:29;;;;;;;3.85;3.45;;;7.10;99.90;;;;;;477259;249;27978;-67
2022/11/19 04:33:30;;;;;;;4.85;3.65;;;7.10;99.90;;;;;;477255;249;27995;-67
2022/11/19 04:35:31;;;;;;;5.87;4.45;;;7.10;99.90;;;;;;477228;249;27636;-66
2022/11/19 04:37:33;;;;;;;5.22;3.40;;;7.10;99.90;;;;;;477232;249;27519;-66
2022/11/19 04:39:34;;;;;;;3.70;3.40;;;7.10;99.90;;;;;;477278;249;27624;-68
2022/11/19 04:41:35;;;;;;;5.12;3.40;;;7.00;99.90;;;;;;477266;249;27494;-66
2022/11/19 04:43:36;;;;;;;3.67;3.28;;;7.10;99.90;;;;;;477262;249;27542;-66
2022/11/19 04:45:38;;;;;;;3.30;3.03;;;7.10;99.90;;;;;;477228;249;27929;-66
2022/11/19 04:47:39;;;;;;;3.53;3.22;;;7.10;99.90;;;;;;477266;249;27949;-66
2022/11/19 04:49:40;;;;;;;3.85;3.55;;;7.10;99.90;;;;;;477255;249;27626;-69
2022/11/19 04:51:41;;;;;;;6.25;3.85;;;7.10;99.90;;;;;;477239;249;27539;-66
2022/11/19 04:53:43;;;;;;;4.15;3.10;;;7.10;99.90;;;;;;477237;249;27561;-66
2022/11/19 04:55:44;;;;;;;3.92;3.25;;;7.10;99.90;;;;;;477216;249;27572;-67
2022/11/19 04:57:45;;;;;;;5.00;3.67;;;7.10;99.90;;;;;;477252;249;27969;-66
2022/11/19 04:59:46;;;;;;;3.65;3.35;;;7.10;99.90;;;;;;477264;249;28136;-68
2022/11/19 05:01:48;;;;;;;3.72;3.42;;;7.10;99.90;;;;;;477249;249;27622;-66
2022/11/19 05:03:49;;;;;;;3.60;3.22;;;7.10;99.90;;;;;;477228;249;27530;-66
2022/11/19 05:05:50;;;;;;;8.68;3.25;;;7.10;99.90;;;;;;477223;249;27490;-65
2022/11/19 05:07:51;;;;;;;3.90;3.50;;;7.10;99.90;;;;;;477262;249;27631;-67
2022/11/19 05:09:53;;;;;;;3.08;2.87;;;7.10;99.90;;;;;;477264;249;27531;-68
2022/11/19 05:11:54;;;;;;;4.10;3.65;;;7.10;99.90;;;;;;477228;249;27924;-66
2022/11/19 05:13:55;;;;;;;3.78;3.15;;;7.10;99.90;;;;;;477237;249;28044;-66
2022/11/19 05:15:56;;;;;;;4.00;3.10;;;7.10;99.90;;;;;;477236;249;27638;-66
2022/11/19 05:17:58;;;;;;;4.18;3.15;;;7.10;99.90;;;;;;477255;249;27585;-66
2022/11/19 05:19:59;;;;;;;5.45;3.62;;;7.10;99.90;;;;;;477176;249;27535;-66
2022/11/19 05:22:00;;;;;;;4.93;3.17;;;7.10;99.90;;;;;;477226;249;27593;-66
2022/11/19 05:24:01;;;;;;;4.28;3.25;;;7.10;99.90;;;;;;477232;249;27564;-66
2022/11/19 05:26:03;;;;;;;3.83;3.53;;;7.10;99.90;;;;;;477259;249;28205;-69
2022/11/19 05:28:04;;;;;;;3.60;3.30;;;7.00;99.90;;;;;;477247;249;27512;-66
2022/11/19 05:30:05;;;;;;;4.00;3.70;;;7.10;99.90;;;;;;477243;249;27566;-67
2022/11/19 05:32:07;;;;;;;4.18;3.25;;;7.00;99.90;;;;;;477244;249;27507;-65
2022/11/19 05:34:08;;;;;;;3.17;2.87;;;7.00;99.90;;;;;;477223;249;27571;-66
2022/11/19 05:36:09;;;;;;;5.45;3.80;;;7.10;99.90;;;;;;477240;249;28031;-66
2022/11/19 05:38:10;;;;;;;4.15;3.58;;;7.00;99.90;;;;;;477238;249;28247;-66
2022/11/19 05:40:12;;;;;;;4.35;3.45;;;7.00;99.90;;;;;;477231;249;27614;-66
2022/11/19 05:42:13;;;;;;;4.00;3.70;;;7.00;99.90;;;;;;477217;249;27497;-65
2022/11/19 05:44:14;;;;;;;4.00;3.60;;;7.00;99.90;;;;;;477271;249;27520;-67
2022/11/19 05:46:15;;;;;;;5.32;4.47;;;7.00;99.90;;;;;;477242;249;27571;-67
2022/11/19 05:48:17;;;;;;;4.57;3.50;;;7.00;99.90;;;;;;477242;249;27489;-66
2022/11/19 05:50:18;;;;;;;5.47;3.95;;;7.00;99.90;;;;;;477227;249;28850;-64
2022/11/19 05:52:19;;;;;;;4.65;4.18;;;7.00;99.90;;;;;;477181;249;28727;-66
2022/11/19 05:54:20;;;;;;;6.20;4.07;;;7.00;99.90;;;;;;477254;249;27611;-66
2022/11/19 05:56:22;;;;;;;4.47;4.05;;;7.00;99.90;;;;;;477241;249;27575;-67
2022/11/19 05:58:23;;;;;;;4.30;3.90;;;7.00;99.90;;;;;;477233;249;27503;-66
2022/11/19 06:00:24;;;;;;;6.95;4.68;;;7.00;99.90;;;;;;477225;249;27573;-66
2022/11/19 06:02:25;;;;;;;4.80;4.32;;;7.00;99.90;;;;;;477240;249;28110;-67
2022/11/19 06:04:27;;;;;;;5.55;4.03;;;7.00;99.90;;;;;;477225;249;28070;-66
2022/11/19 06:06:28;;;;;;;8.30;4.40;;;7.00;99.90;;;;;;477206;249;27664;-65
2022/11/19 06:08:29;;;;;;;4.00;3.58;;;7.00;99.90;;;;;;477216;249;27604;-63
2022/11/19 06:10:30;;;;;;;5.37;4.05;;;7.00;99.90;;;;;;477214;249;27520;-65
2022/11/19 06:12:32;;;;;;;3.80;3.50;;;7.00;99.90;;;;;;477299;249;27529;-69
2022/11/19 06:14:33;;;;;;;5.15;4.37;;;7.00;99.90;;;;;;477297;249;27611;-65
2022/11/19 06:16:34;;;;;;;8.68;4.60;;;7.00;99.90;;;;;;477258;249;28099;-67
2022/11/19 06:18:35;;;;;;;4.50;4.03;;;7.00;99.90;;;;;;477243;249;27967;-66
2022/11/19 06:20:37;;;;;;;4.30;3.90;;;6.90;99.90;;;;;;477218;249;27571;-66
2022/11/19 06:22:38;;;;;;;4.72;3.62;;;6.90;99.90;;;;;;477250;249;27603;-68
2022/11/19 06:24:39;;;;;;;4.40;3.70;;;6.90;99.90;;;;;;477249;249;27583;-66
2022/11/19 06:26:41;;;;;;;4.30;3.90;;;6.90;99.90;;;;;;477227;247;27523;-66
2022/11/19 06:28:42;;;;;;;5.50;4.57;;;6.90;99.90;;;;;;477226;249;27567;-64
2022/11/19 06:30:43;;;;;;;6.32;3.72;;;6.90;99.90;;;;;;477259;249;27945;-64
2022/11/19 06:32:44;;;;;;;3.92;3.62;;;6.90;99.90;;;;;;477240;249;28018;-68
2022/11/19 06:34:46;;;;;;;4.30;3.70;;;6.90;99.90;;;;;;477212;249;27505;-66
2022/11/19 06:36:47;;;;;;;4.93;3.70;;;6.90;99.90;;;;;;477215;249;27577;-64
2022/11/19 06:38:48;;;;;;;4.40;4.00;;;6.90;99.90;;;;;;477217;249;27491;-64
2022/11/19 06:40:49;;;;;;;3.90;3.60;;;7.00;99.90;;;;;;477260;249;27600;-64
2022/11/19 06:42:51;;;;;;;4.37;3.97;;;7.00;99.90;;;;;;477255;249;27567;-67
2022/11/19 06:44:52;;;;;;;4.10;3.70;;;6.90;99.90;;;;;;477252;249;28030;-66
2022/11/19 06:46:53;;;;;;;5.15;4.20;;;6.90;99.90;;;;;;477288;249;28127;-67
2022/11/19 06:48:54;;;;;;;4.10;3.70;;;6.90;99.90;;;;;;477217;249;28087;-65
2022/11/19 06:50:56;;;;;;;4.35;3.95;;;6.90;99.90;;;;;;477343;247;27614;-66
2022/11/19 06:52:57;;;;;;;4.32;3.10;;;6.90;99.90;;;;;;477221;249;27652;-65
2022/11/19 06:54:58;;;;;;;3.85;3.55;;;6.90;99.90;;;;;;477194;247;27498;-64
2022/11/19 06:56:59;;;;;;;4.93;4.22;;;6.80;99.90;;;;;;477217;249;27532;-64
2022/11/19 06:59:01;;;;;;;4.12;3.65;;;6.90;99.90;;;;;;477255;249;28472;-67
2022/11/19 07:01:02;;;;;;;5.87;3.47;;;6.90;99.90;;;;;;477267;249;28015;-64
2022/11/19 07:03:03;;;;;;;4.20;3.40;;;6.90;99.90;;;;;;477264;249;27611;-65
2022/11/19 07:05:04;;;;;;;4.70;2.80;;;6.90;99.90;;;;;;477230;249;27616;-66
2022/11/19 07:07:06;;;;;;;4.05;3.05;;;6.90;99.90;;;;;;477235;249;27523;-65
2022/11/19 07:09:07;;;;;;;4.28;3.25;;;6.80;99.90;;;;;;477312;249;27580;-67
2022/11/19 07:11:26;;;;;;;4.15;3.17;;;6.90;99.90;;;;;;477263;249;27589;-64
2022/11/19 07:13:56;;;;;;;3.00;2.60;;;6.90;99.90;;;;;;477256;249;27683;-64
2022/11/19 07:15:32;;;;;;;3.65;2.72;;;6.90;99.90;;;;;;475646;249;27523;-64
2022/11/19 07:17:33;;;;;;;3.42;2.90;;;6.90;99.90;;;;;;477237;249;27659;-64
2022/11/19 07:19:34;;;;;;;5.53;2.95;;;6.80;99.90;;;;;;477229;249;27507;-66
2022/11/19 07:21:35;;;;;;;3.62;2.70;;;6.90;99.90;;;;;;477269;249;28052;-66
2022/11/19 07:23:37;;;;;;;3.47;2.20;;;6.80;99.90;;;;;;477265;249;28069;-64
2022/11/19 07:25:38;;;;;;;2.80;2.60;;;6.80;99.90;;;;;;477264;249;27623;-65
2022/11/19 07:27:39;;;;;;;3.90;2.85;;;6.80;99.90;;;;;;477262;249;27529;-66
2022/11/19 07:29:40;;;;;;;3.80;2.30;;;6.80;99.90;;;;;;477231;249;27613;-66
2022/11/19 07:31:42;;;;;;;2.45;1.95;;;6.80;99.90;;;;;;477208;249;27539;-64
2022/11/19 07:33:43;;;;;;;3.70;2.70;;;6.80;99.90;;;;;;477068;249;27582;-64
2022/11/19 07:35:44;;;;;;;5.28;2.40;;;6.80;99.90;;;;;;477076;249;28040;-64
2022/11/19 07:37:45;;;;;;;2.67;1.98;;;6.80;99.90;;;;;;477018;249;29013;-66
2022/11/19 07:39:47;;;;;;;2.78;2.58;;;6.80;99.90;;;;;;477145;249;27598;-66
2022/11/19 07:44:07;;;;;;;3.40;2.10;;;6.80;99.90;;;;;;477245;249;27598;-64
2022/11/19 07:46:09;;;;;;;5.80;2.50;;;6.90;99.90;;;;;;477271;249;27512;-64
2022/11/19 07:48:10;;;;;;;2.40;2.20;;;6.90;99.90;;;;;;477248;249;27600;-66
2022/11/19 07:50:11;;;;;;;2.28;2.15;;;6.80;99.90;;;;;;477259;249;27972;-66
2022/11/19 07:52:12;;;;;;;4.30;2.20;;;6.80;99.90;;;;;;477254;249;28026;-64
2022/11/19 07:54:14;;;;;;;2.75;2.10;;;6.80;99.90;;;;;;477239;249;27511;-64
2022/11/19 07:56:15;;;;;;;4.60;2.80;;;6.80;99.90;;;;;;477257;249;27524;-66
2022/11/19 07:58:16;;;;;;;2.03;1.90;;;6.90;99.90;;;;;;477268;249;27595;-68
2022/11/19 08:00:17;;;;;;;3.00;2.10;;;6.90;99.90;;;;;;477261;249;27548;-66
2022/11/19 08:02:19;;;;;;;3.80;2.70;;;6.80;99.90;;;;;;477252;249;27574;-64
2022/11/19 08:04:20;;;;;;;3.55;2.50;;;6.80;99.90;;;;;;477238;249;28155;-63
2022/11/19 08:06:21;;;;;;;2.62;2.17;;;6.80;99.90;;;;;;477254;249;27956;-66
2022/11/19 08:08:22;;;;;;;3.40;2.10;;;6.80;99.90;;;;;;477272;249;27552;-68
2022/11/19 08:10:24;;;;;;;2.45;2.25;;;6.80;99.90;;;;;;477264;249;27589;-66
2022/11/19 08:12:25;;;;;;;3.30;2.60;;;6.80;99.90;;;;;;477201;249;27632;-67
2022/11/19 08:14:27;;;;;;;2.83;2.20;;;6.80;99.90;;;;;;477223;249;27496;-64
2022/11/19 08:18:47;;;;;;;1.87;1.70;;;6.70;99.90;;;;;;477281;249;27998;-67
2022/11/19 08:20:50;;;;;;;4.78;2.03;;;6.80;99.90;;;;;;477268;249;27621;-67
2022/11/19 08:22:51;;;;;;;2.22;2.00;;;6.80;99.90;;;;;;477276;249;27579;-64
2022/11/19 08:24:52;;;;;;;4.82;2.25;;;6.80;99.90;;;;;;477229;249;27552;-63
2022/11/19 08:26:54;;;;;;;2.60;2.40;;;6.80;99.90;;;;;;477267;249;27956;-64
2022/11/19 08:28:55;;;;;;;2.37;2.17;;;6.80;99.90;;;;;;477280;249;27564;-65
2022/11/19 08:30:56;;;;;;;2.30;2.10;;;6.80;99.90;;;;;;477263;249;27501;-66
2022/11/19 08:32:57;;;;;;;4.22;2.40;;;6.90;99.90;;;;;;477219;249;27531;-66
2022/11/19 08:34:59;;;;;;;3.10;2.40;;;6.90;99.90;;;;;;477221;249;27627;-65
2022/11/19 08:37:00;;;;;;;3.20;2.22;;;6.90;99.90;;;;;;477228;249;27514;-66
2022/11/19 08:39:02;;;;;;;2.55;2.35;;;6.80;99.90;;;;;;477267;249;28092;-66
2022/11/19 08:43:22;;;;;;;2.75;2.20;;;6.80;99.90;;;;;;477275;249;27495;-64
2022/11/19 08:45:25;;;;;;;4.72;2.45;;;6.80;99.90;;;;;;477261;249;27640;-67
2022/11/19 08:47:25;;;;;;;3.10;2.78;;;6.80;99.90;;;;;;477130;249;28027;-66
2022/11/19 08:49:26;;;;;;;3.90;2.92;;;6.80;99.90;;;;;;477228;249;27535;-67
2022/11/19 08:51:27;;;;;;;3.62;2.70;;;6.80;99.90;;;;;;477282;249;27529;-69
2022/11/19 08:53:28;;;;;;;4.20;2.72;;;6.80;99.90;;;;;;477220;249;27634;-66
2022/11/19 08:55:30;;;;;;;3.55;2.67;;;6.80;99.90;;;;;;477208;249;27544;-67
2022/11/19 08:57:31;;;;;;;2.40;2.20;;;6.90;99.90;;;;;;477241;249;27575;-64
2022/11/19 08:59:32;;;;;;;2.70;2.50;;;6.90;99.90;;;;;;477251;249;27948;-64
2022/11/19 09:01:33;;;;;;;2.63;2.43;;;6.80;99.90;;;;;;477279;249;28181;-65
2022/11/19 09:03:35;;;;;;;3.35;2.80;;;6.80;99.90;;;;;;477261;249;29384;-65
2022/11/19 09:05:36;;;;;;;4.70;2.55;;;6.80;99.90;;;;;;477254;249;27999;-66
2022/11/19 09:07:37;;;;;;;3.30;3.00;;;6.80;99.90;;;;;;477229;247;27515;-63
2022/11/19 09:09:39;;;;;;;3.22;2.85;;;6.90;99.90;;;;;;477294;249;27504;-66
2022/11/19 09:11:40;;;;;;;5.32;3.20;;;6.80;99.90;;;;;;477258;249;27549;-67
2022/11/19 09:13:41;;;;;;;3.05;2.85;;;6.80;99.90;;;;;;477251;249;27495;-66
2022/11/19 09:15:42;;;;;;;4.22;3.00;;;6.80;99.90;;;;;;477200;249;28145;-66
2022/11/19 09:17:44;;;;;;;3.12;2.83;;;6.80;99.90;;;;;;477243;249;28122;-66
2022/11/19 09:19:45;;;;;;;3.65;3.22;;;6.80;99.90;;;;;;477263;249;27504;-67
2022/11/19 09:21:46;;;;;;;3.25;2.92;;;6.80;99.90;;;;;;477265;249;27524;-67
2022/11/19 09:23:47;;;;;;;3.22;3.00;;;6.80;99.90;;;;;;477234;249;27525;-66
2022/11/19 09:25:49;;;;;;;3.80;3.50;;;6.80;99.90;;;;;;477243;249;27530;-64
2022/11/19 09:27:50;;;;;;;4.20;3.73;;;6.80;99.90;;;;;;477274;249;27961;-68
2022/11/19 09:29:51;;;;;;;4.70;3.55;;;6.80;99.90;;;;;;477252;249;28302;-66
2022/11/19 09:31:52;;;;;;;4.90;3.75;;;6.80;99.90;;;;;;477229;249;28081;-66
2022/11/19 09:33:54;;;;;;;4.53;3.67;;;6.80;99.90;;;;;;477253;249;28087;-66
2022/11/19 09:35:55;;;;;;;8.07;4.28;;;6.80;99.90;;;;;;477212;249;27630;-66
2022/11/19 09:37:56;;;;;;;5.35;4.20;;;6.90;99.90;;;;;;477264;249;27596;-66
2022/11/19 09:39:57;;;;;;;5.10;4.40;;;6.80;99.90;;;;;;477252;249;27629;-66
2022/11/19 09:41:59;;;;;;;5.70;3.97;;;6.80;99.90;;;;;;477234;249;27539;-66
2022/11/19 09:44:00;;;;;;;7.53;4.22;;;6.80;99.90;;;;;;477227;249;27600;-66
2022/11/19 09:46:01;;;;;;;6.45;4.18;;;6.90;99.90;;;;;;477225;249;28057;-67
2022/11/19 09:48:02;;;;;;;4.72;4.07;;;6.90;99.90;;;;;;477273;249;27542;-69
2022/11/19 09:50:04;;;;;;;6.20;4.50;;;6.80;99.90;;;;;;477248;249;27552;-66
2022/11/19 09:52:05;;;;;;;5.62;5.12;;;6.80;99.90;;;;;;477229;249;27541;-67
2022/11/19 09:54:06;;;;;;;5.80;4.62;;;6.70;99.90;;;;;;477248;249;27568;-66
2022/11/19 09:56:07;;;;;;;9.80;5.20;;;6.80;99.90;;;;;;477210;249;27532;-66
2022/11/19 09:58:09;;;;;;;6.72;5.45;;;6.80;99.90;;;;;;477255;249;28101;-68
2022/11/19 10:00:10;;;;;;;7.57;5.85;;;6.80;99.90;;;;;;477194;249;27967;-64
2022/11/19 10:02:11;;;;;;;10.93;5.72;;;6.80;99.90;;;;;;477234;249;27664;-66
2022/11/19 10:04:12;;;;;;;6.22;5.53;;;6.80;99.90;;;;;;477216;249;27500;-64
2022/11/19 10:06:14;;;;;;;7.28;5.53;;;6.80;99.90;;;;;;477247;249;27539;-64
2022/11/19 10:08:15;;;;;;;9.63;6.18;;;6.80;99.90;;;;;;477264;249;27625;-65
2022/11/19 10:10:16;;;;;;;6.85;5.90;;;6.80;99.90;;;;;;477256;249;27502;-64
2022/11/19 10:12:18;;;;;;;8.82;6.28;;;6.80;99.90;;;;;;477224;249;28109;-65
2022/11/19 10:14:19;;;;;;;7.05;6.35;;;6.90;99.90;;;;;;477180;249;28045;-64
2022/11/19 10:16:20;;;;;;;8.02;5.75;;;6.80;99.90;;;;;;477267;249;27521;-64
2022/11/19 10:18:21;;;;;;;8.20;5.90;;;6.90;99.90;;;;;;477287;249;27566;-67
2022/11/19 10:20:23;;;;;;;8.75;6.20;;;6.90;99.90;;;;;;477262;249;27609;-66
2022/11/19 10:22:24;;;;;;;6.50;5.90;;;6.90;99.90;;;;;;477254;249;27553;-66
2022/11/19 10:24:25;;;;;;;6.60;5.40;;;6.90;99.90;;;;;;477203;249;27561;-66
2022/11/19 10:26:26;;;;;;;8.52;5.82;;;6.90;99.90;;;;;;477255;249;29312;-66
2022/11/19 10:28:28;;;;;;;6.20;5.57;;;7.00;99.90;;;;;;477259;249;28006;-68
2022/11/19 10:30:29;;;;;;;6.25;5.50;;;7.00;99.90;;;;;;477222;249;27496;-66
2022/11/19 10:32:31;;;;;;;5.50;5.10;;;7.00;99.90;;;;;;477241;249;27521;-66
2022/11/19 10:34:31;;;;;;;7.05;5.10;;;7.10;99.90;;;;;;477171;249;27535;-66
2022/11/19 10:36:33;;;;;;;6.87;5.55;;;7.10;99.90;;;;;;477220;249;27573;-66
2022/11/19 10:38:34;;;;;;;9.30;6.23;;;7.00;99.90;;;;;;477260;249;27565;-67
2022/11/19 10:40:35;;;;;;;6.03;5.40;;;7.10;99.90;;;;;;477245;249;29354;-66
2022/11/19 10:42:36;;;;;;;6.65;4.95;;;7.10;99.90;;;;;;477268;249;28012;-66
2022/11/19 10:44:41;;;;;;;7.50;5.70;;;7.10;99.90;;;;;;477288;247;27545;-69
2022/11/19 10:46:39;;;;;;;7.10;5.12;;;7.10;99.90;;;;;;476906;249;27498;-66
2022/11/19 10:48:40;;;;;;;7.15;5.50;;;7.10;99.90;;;;;;477299;249;27644;-66
2022/11/19 10:50:41;;;;;;;8.50;5.67;;;7.10;99.90;;;;;;477287;249;27586;-66
2022/11/19 10:52:43;;;;;;;6.15;5.55;;;7.10;99.90;;;;;;477271;249;28892;-66
2022/11/19 10:54:44;;;;;;;5.68;5.10;;;7.10;99.90;;;;;;477333;249;28131;-69
2022/11/19 10:56:45;;;;;;;5.28;4.57;;;7.10;99.90;;;;;;477285;249;28095;-66
2022/11/19 10:58:46;;;;;;;6.00;4.95;;;7.20;99.90;;;;;;477224;249;27568;-67
2022/11/19 11:00:48;;;;;;;9.15;5.00;;;7.20;99.90;;;;;;477235;249;27497;-66
2022/11/19 11:02:49;;;;;;;5.00;4.60;;;7.20;99.90;;;;;;477282;249;27529;-66